Time;durP1;ratioP1;P1;durP2;ratioP2;P2;SDS_P1;SDS_P2;PMS_P1;PMS_P2;Temp;Humidity;BMP_temperature;BMP_pressure;BME280_temperature;BME280_humidity;BME280_pressure;Samples;Min_cycle;Max_cycle;Signal;HPM_P1;HPM_P2
2020/12/10 05:01:31;;;;;;;35.97;22.93;;;2.40;99.90;;;;;;5495405;23;20497;-68
2020/12/10 05:03:58;;;;;;;33.17;22.40;;;2.30;99.90;;;;;;4995932;28;20848;-68
2020/12/10 05:06:25;;;;;;;38.77;22.90;;;2.30;99.90;;;;;;4995374;28;20942;-69
2020/12/10 05:08:52;;;;;;;33.53;22.30;;;2.20;99.90;;;;;;4996088;28;20561;-69
2020/12/10 05:11:33;;;;;;;34.70;22.40;;;2.20;99.90;;;;;;4995966;28;20466;-69
2020/12/10 05:13:59;;;;;;;33.93;21.03;;;2.30;99.90;;;;;;4995918;28;20484;-69
2020/12/10 05:16:25;;;;;;;35.40;23.03;;;2.30;99.90;;;;;;4996044;28;20450;-70
2020/12/10 05:18:52;;;;;;;37.50;23.67;;;2.30;99.90;;;;;;4995705;28;20456;-68
2020/12/10 05:21:18;;;;;;;33.13;21.47;;;2.20;99.90;;;;;;4995856;28;20466;-68
2020/12/10 05:23:45;;;;;;;36.70;23.10;;;2.30;99.90;;;;;;4995878;28;20449;-69
2020/12/10 05:26:11;;;;;;;36.03;22.33;;;2.30;99.90;;;;;;4995611;28;20489;-69
2020/12/10 05:28:45;;;;;;;36.57;22.50;;;2.30;99.90;;;;;;4995459;28;20926;-69
2020/12/10 05:31:13;;;;;;;34.00;22.03;;;2.30;99.90;;;;;;4995610;28;20477;-68
2020/12/10 05:33:53;;;;;;;38.07;23.10;;;2.30;99.90;;;;;;4995367;28;20946;-69
2020/12/10 05:36:20;;;;;;;39.77;24.67;;;2.30;99.90;;;;;;4995925;28;20438;-68
2020/12/10 05:38:58;;;;;;;44.30;22.93;;;2.20;99.90;;;;;;4996011;28;20492;-68
2020/12/10 05:41:26;;;;;;;38.43;24.00;;;2.20;99.90;;;;;;4995797;28;20477;-67
2020/12/10 05:43:52;;;;;;;40.40;23.33;;;2.20;99.90;;;;;;4994741;28;20503;-67
2020/12/10 05:46:20;;;;;;;33.80;22.73;;;2.20;99.90;;;;;;4994759;28;20453;-68
2020/12/10 05:48:48;;;;;;;37.23;23.47;;;2.10;99.90;;;;;;4994700;28;20829;-68
2020/12/10 05:51:17;;;;;;;35.57;22.53;;;2.20;99.90;;;;;;4994818;28;20470;-68
2020/12/10 05:53:43;;;;;;;34.80;22.47;;;2.10;99.90;;;;;;4994287;28;20465;-67
2020/12/10 05:56:15;;;;;;;37.37;22.67;;;2.00;99.90;;;;;;4994665;28;20461;-68
2020/12/10 05:59:00;;;;;;;38.93;23.63;;;2.00;99.90;;;;;;4994801;28;20454;-68
2020/12/10 06:01:31;;;;;;;36.00;23.00;;;2.10;99.90;;;;;;4994537;28;20473;-68
2020/12/10 06:03:57;;;;;;;35.40;24.13;;;2.20;99.90;;;;;;4994840;28;20438;-68
2020/12/10 06:06:27;;;;;;;42.37;24.70;;;2.30;99.90;;;;;;4994806;28;20453;-69
2020/12/10 06:08:59;;;;;;;38.20;24.10;;;2.30;99.90;;;;;;4995182;28;20450;-68
2020/12/10 06:11:25;;;;;;;38.33;25.70;;;2.40;99.90;;;;;;4994799;28;20474;-68
2020/12/10 06:13:59;;;;;;;34.97;22.00;;;2.40;99.90;;;;;;4994816;28;20441;-68
2020/12/10 06:16:25;;;;;;;32.57;21.67;;;2.40;99.90;;;;;;4994695;28;20434;-67
2020/12/10 06:19:01;;;;;;;31.87;20.47;;;2.40;99.90;;;;;;4994323;28;20456;-67
2020/12/10 06:21:40;;;;;;;35.73;21.27;;;2.40;99.90;;;;;;4994391;28;20543;-67
2020/12/10 06:24:35;;;;;;;35.80;23.17;;;2.30;99.90;;;;;;4994406;28;20438;-68
2020/12/10 06:27:19;;;;;;;33.60;22.00;;;2.40;99.90;;;;;;4994310;28;20980;-68
2020/12/10 06:29:45;;;;;;;29.83;21.47;;;2.50;99.90;;;;;;4994716;28;20441;-67
2020/12/10 06:32:13;;;;;;;34.47;22.00;;;2.50;99.90;;;;;;4994388;28;20481;-68
2020/12/10 06:34:48;;;;;;;33.90;21.33;;;2.40;99.90;;;;;;4994564;28;20477;-68
2020/12/10 06:37:20;;;;;;;32.67;22.23;;;2.40;99.90;;;;;;4994553;28;20445;-68
2020/12/10 06:39:48;;;;;;;30.03;20.97;;;2.40;99.90;;;;;;4994461;28;20438;-69
2020/12/10 06:42:14;;;;;;;32.33;21.20;;;2.30;99.90;;;;;;4994304;28;20500;-68
2020/12/10 06:44:40;;;;;;;30.33;21.20;;;2.40;99.90;;;;;;4994219;28;21062;-68
2020/12/10 06:47:07;;;;;;;30.60;21.33;;;2.30;99.90;;;;;;4994607;28;20446;-68
2020/12/10 06:49:35;;;;;;;32.03;21.70;;;2.40;99.90;;;;;;4994344;28;20791;-69
2020/12/10 06:52:21;;;;;;;27.73;19.90;;;2.40;99.90;;;;;;4994075;28;20544;-69
2020/12/10 06:55:07;;;;;;;29.30;21.80;;;2.50;99.90;;;;;;4994529;28;20450;-69
2020/12/10 06:58:03;;;;;;;33.07;21.60;;;2.50;99.90;;;;;;4994389;28;20454;-69
2020/12/10 07:00:46;;;;;;;29.63;20.23;;;2.50;99.90;;;;;;4994340;28;20438;-69
2020/12/10 07:03:20;;;;;;;34.00;22.20;;;2.50;99.90;;;;;;4998844;28;20535;-69
2020/12/10 07:05:46;;;;;;;33.03;20.93;;;2.50;99.90;;;;;;4998623;28;20865;-68
2020/12/10 07:08:16;;;;;;;36.00;23.50;;;2.60;99.90;;;;;;4998424;28;20458;-69
2020/12/10 07:10:44;;;;;;;28.17;21.10;;;2.60;99.90;;;;;;4998286;28;20888;-70
2020/12/10 07:13:11;;;;;;;30.63;22.40;;;2.60;99.90;;;;;;4998265;28;20516;-69
2020/12/10 07:15:38;;;;;;;28.20;21.27;;;2.60;99.90;;;;;;4998686;28;20457;-69
2020/12/10 07:18:05;;;;;;;37.10;23.07;;;2.60;99.90;;;;;;4998639;28;20457;-69
2020/12/10 07:20:33;;;;;;;31.70;22.37;;;2.70;99.90;;;;;;4998328;28;20470;-69
2020/12/10 07:23:01;;;;;;;36.47;23.47;;;2.50;99.90;;;;;;4998399;28;20475;-68
2020/12/10 07:25:29;;;;;;;31.93;22.03;;;2.60;99.90;;;;;;4998174;28;20477;-68
2020/12/10 07:27:55;;;;;;;27.43;20.57;;;2.70;99.90;;;;;;4998436;28;20450;-68
2020/12/10 07:30:24;;;;;;;29.63;21.67;;;2.70;99.90;;;;;;4998120;28;20481;-68
2020/12/10 07:32:53;;;;;;;38.60;22.70;;;2.70;99.90;;;;;;4998435;28;20438;-68
2020/12/10 07:35:28;;;;;;;33.93;22.33;;;2.70;99.90;;;;;;4998347;28;20449;-69
2020/12/10 07:37:54;;;;;;;30.20;21.73;;;2.70;99.90;;;;;;4997450;28;20922;-69
2020/12/10 07:40:20;;;;;;;36.03;23.63;;;2.70;99.90;;;;;;4997825;28;20449;-68
2020/12/10 07:42:47;;;;;;;32.43;23.30;;;2.60;99.90;;;;;;4997520;28;20844;-69
2020/12/10 07:45:15;;;;;;;34.23;22.33;;;2.70;99.90;;;;;;4998165;28;20478;-69
2020/12/10 07:47:42;;;;;;;29.27;20.70;;;2.70;99.90;;;;;;4997783;28;20457;-68
2020/12/10 07:50:20;;;;;;;31.43;23.07;;;2.70;99.90;;;;;;4997866;28;20508;-68
2020/12/10 07:52:47;;;;;;;28.67;19.93;;;2.60;99.90;;;;;;4997460;28;20444;-68
2020/12/10 07:55:17;;;;;;;30.40;21.40;;;2.70;99.90;;;;;;4997899;28;20446;-67
2020/12/10 07:58:06;;;;;;;31.90;21.20;;;2.70;99.90;;;;;;4998435;28;20516;-66
2020/12/10 08:00:33;;;;;;;29.83;21.23;;;2.70;99.90;;;;;;4997510;28;21068;-67
2020/12/10 08:03:18;;;;;;;30.03;20.33;;;2.70;99.90;;;;;;4997983;28;20442;-67
2020/12/10 08:05:54;;;;;;;28.43;20.53;;;2.70;99.90;;;;;;4997680;28;20462;-68
2020/12/10 08:08:30;;;;;;;29.40;20.03;;;2.70;99.90;;;;;;4997983;28;20438;-67
2020/12/10 08:11:06;;;;;;;27.40;20.27;;;2.70;99.90;;;;;;4998022;28;20480;-68
2020/12/10 08:13:33;;;;;;;29.57;21.63;;;2.80;99.90;;;;;;4997655;28;20616;-68
2020/12/10 08:16:07;;;;;;;28.97;20.53;;;2.80;99.90;;;;;;4997992;28;20806;-68
2020/12/10 08:18:33;;;;;;;31.10;20.93;;;2.80;99.90;;;;;;4998428;28;20438;-68
2020/12/10 08:21:00;;;;;;;31.87;22.23;;;2.80;99.90;;;;;;4998399;28;20477;-67
2020/12/10 08:23:26;;;;;;;30.97;21.37;;;2.80;99.90;;;;;;4998907;28;20490;-68
2020/12/10 08:26:08;;;;;;;31.23;20.60;;;2.80;99.90;;;;;;4998343;28;20478;-68
2020/12/10 08:28:35;;;;;;;28.70;21.50;;;2.90;99.90;;;;;;4997847;28;20430;-68
2020/12/10 08:31:02;;;;;;;29.03;19.50;;;2.90;99.90;;;;;;4997181;28;20470;-67
2020/12/10 08:33:34;;;;;;;27.10;19.70;;;2.80;99.90;;;;;;4997382;28;20456;-68
2020/12/10 08:36:00;;;;;;;37.00;21.60;;;2.80;99.90;;;;;;4997906;28;20938;-68
2020/12/10 08:38:26;;;;;;;28.50;20.10;;;2.80;99.90;;;;;;4998829;28;20457;-68
2020/12/10 08:40:56;;;;;;;29.73;21.10;;;2.70;99.90;;;;;;4999365;28;20476;-67
2020/12/10 08:43:22;;;;;;;34.30;21.40;;;2.80;99.90;;;;;;4998270;28;20445;-68
2020/12/10 08:45:49;;;;;;;28.87;20.20;;;2.80;99.90;;;;;;4998837;28;20482;-68
2020/12/10 08:48:23;;;;;;;29.50;19.97;;;2.90;99.90;;;;;;4998476;28;20476;-69
2020/12/10 08:50:52;;;;;;;27.00;19.53;;;2.80;99.90;;;;;;4996824;28;20985;-68
2020/12/10 08:53:18;;;;;;;28.50;20.30;;;2.90;99.90;;;;;;4995789;28;20960;-68
2020/12/10 08:55:47;;;;;;;32.27;20.40;;;2.90;99.90;;;;;;4996233;28;20454;-68
2020/12/10 08:58:16;;;;;;;30.03;19.47;;;2.90;99.90;;;;;;4995912;28;20934;-67
2020/12/10 09:00:43;;;;;;;29.07;19.33;;;2.90;99.90;;;;;;4996053;28;20509;-68
2020/12/10 09:03:10;;;;;;;27.20;19.40;;;3.00;99.90;;;;;;4996615;28;20437;-67
2020/12/10 09:05:36;;;;;;;30.57;19.53;;;3.00;99.90;;;;;;4996188;28;20812;-67
2020/12/10 09:08:03;;;;;;;27.27;19.70;;;3.00;99.90;;;;;;4996547;28;20461;-67
2020/12/10 09:10:29;;;;;;;29.50;18.73;;;3.00;99.90;;;;;;4996349;28;20458;-67
2020/12/10 09:12:57;;;;;;;27.70;19.00;;;3.00;99.90;;;;;;4996798;28;20438;-64
2020/12/10 09:15:23;;;;;;;29.57;19.63;;;3.10;99.90;;;;;;4996046;28;20488;-64
2020/12/10 09:17:50;;;;;;;26.40;18.50;;;3.20;99.90;;;;;;4996432;28;20453;-64
2020/12/10 09:20:18;;;;;;;25.50;17.40;;;3.30;99.90;;;;;;4996114;28;20822;-65
2020/12/10 09:22:44;;;;;;;23.00;16.37;;;3.30;99.90;;;;;;4996330;28;20450;-65
2020/12/10 09:25:10;;;;;;;23.97;18.00;;;3.30;99.90;;;;;;4995593;28;20473;-64
2020/12/10 09:27:37;;;;;;;26.70;18.57;;;3.30;99.90;;;;;;4996118;28;20489;-65
2020/12/10 09:30:05;;;;;;;27.20;19.10;;;3.30;99.90;;;;;;4996195;28;20578;-65
2020/12/10 09:32:34;;;;;;;30.57;19.90;;;3.40;99.90;;;;;;4996118;28;20470;-63
2020/12/10 09:35:00;;;;;;;27.70;19.50;;;3.40;99.90;;;;;;4995350;28;20926;-64
2020/12/10 09:37:27;;;;;;;27.90;20.00;;;3.50;99.90;;;;;;4995826;28;20461;-64
2020/12/10 09:39:54;;;;;;;28.53;19.60;;;3.50;99.90;;;;;;4995927;28;20831;-63
2020/12/10 09:42:20;;;;;;;24.60;17.73;;;3.60;99.90;;;;;;4995872;28;20838;-64
2020/12/10 09:44:46;;;;;;;26.83;19.20;;;3.60;99.90;;;;;;4996383;28;20485;-64
2020/12/10 09:47:13;;;;;;;27.00;19.03;;;3.60;99.90;;;;;;4996059;28;20977;-64
2020/12/10 09:49:39;;;;;;;26.83;18.37;;;3.60;99.90;;;;;;4996766;28;20450;-64
2020/12/10 09:52:06;;;;;;;29.50;18.03;;;3.60;99.90;;;;;;4996438;28;20481;-65
2020/12/10 09:54:48;;;;;;;27.93;17.43;;;3.70;99.90;;;;;;4996209;28;20450;-65
2020/12/10 09:57:29;;;;;;;22.73;16.00;;;3.80;99.90;;;;;;4996146;28;20549;-65
2020/12/10 09:59:56;;;;;;;23.53;15.90;;;3.80;99.90;;;;;;4996204;28;20787;-64
2020/12/10 10:02:22;;;;;;;28.87;17.10;;;3.80;99.90;;;;;;4995920;28;20492;-64
2020/12/10 10:04:48;;;;;;;23.90;17.57;;;3.70;99.90;;;;;;4996171;28;20477;-64
2020/12/10 10:07:15;;;;;;;23.47;17.27;;;3.60;99.90;;;;;;4998216;28;20530;-64
2020/12/10 10:09:42;;;;;;;24.70;17.80;;;3.60;99.90;;;;;;4998028;28;20450;-65
2020/12/10 10:12:09;;;;;;;27.43;18.57;;;3.60;99.90;;;;;;5000843;28;20569;-65
2020/12/10 10:14:37;;;;;;;29.27;18.67;;;3.60;99.90;;;;;;5002502;28;20461;-65
2020/12/10 10:17:05;;;;;;;25.53;17.53;;;3.60;99.90;;;;;;5003131;28;20483;-65
2020/12/10 10:19:34;;;;;;;23.00;16.67;;;3.70;99.90;;;;;;4999825;28;20461;-64
2020/12/10 10:22:00;;;;;;;21.10;15.30;;;3.80;99.90;;;;;;4995111;28;20473;-66
2020/12/10 10:24:26;;;;;;;23.27;15.73;;;3.70;99.90;;;;;;4994871;28;20524;-66
2020/12/10 10:26:54;;;;;;;13.70;11.40;;;3.70;99.90;;;;;;4995062;28;20854;-65
2020/12/10 10:29:21;;;;;;;18.93;13.30;;;3.80;99.90;;;;;;4995653;28;20449;-64
2020/12/10 10:31:48;;;;;;;19.80;15.27;;;3.80;99.90;;;;;;4994741;28;20473;-65
2020/12/10 10:34:14;;;;;;;20.10;13.57;;;3.80;99.90;;;;;;4995040;28;20450;-64
2020/12/10 10:36:40;;;;;;;16.67;13.30;;;3.90;99.90;;;;;;4994209;28;20485;-65
2020/12/10 10:39:06;;;;;;;15.37;11.87;;;4.00;99.90;;;;;;4995051;28;20449;-65
2020/12/10 10:41:32;;;;;;;18.30;11.53;;;4.00;99.90;;;;;;4994670;28;20486;-64
2020/12/10 10:43:59;;;;;;;12.17;9.70;;;4.10;99.90;;;;;;4994743;28;20453;-66
2020/12/10 10:46:26;;;;;;;12.80;10.17;;;4.20;99.90;;;;;;4994973;28;20481;-66
2020/12/10 10:48:52;;;;;;;11.33;9.87;;;4.20;99.90;;;;;;4994760;28;20454;-66
2020/12/10 10:51:18;;;;;;;12.37;10.20;;;4.10;99.90;;;;;;4994479;28;20977;-64
2020/12/10 10:53:44;;;;;;;17.13;12.97;;;4.00;99.90;;;;;;4994685;28;20454;-64
2020/12/10 10:56:10;;;;;;;16.40;11.97;;;3.90;99.90;;;;;;4994461;28;20950;-65
2020/12/10 10:58:38;;;;;;;16.03;12.60;;;4.10;99.90;;;;;;4994345;28;20476;-64
2020/12/10 11:01:05;;;;;;;14.00;11.20;;;4.20;99.90;;;;;;4994037;28;20552;-65
2020/12/10 11:03:31;;;;;;;17.10;12.73;;;4.10;99.90;;;;;;4994435;28;20461;-65
2020/12/10 11:05:57;;;;;;;16.40;12.43;;;4.00;99.90;;;;;;4994401;28;20474;-65
2020/12/10 11:08:24;;;;;;;21.37;14.40;;;4.20;99.90;;;;;;4994312;28;20449;-65
2020/12/10 11:10:50;;;;;;;18.20;13.47;;;4.10;99.90;;;;;;4993741;28;20473;-65
2020/12/10 11:13:16;;;;;;;14.03;11.80;;;4.30;99.90;;;;;;4994237;28;20456;-63
2020/12/10 11:15:42;;;;;;;13.50;9.90;;;4.40;99.90;;;;;;4994400;28;20446;-63
2020/12/10 11:18:09;;;;;;;16.90;12.37;;;4.40;99.90;;;;;;4994573;28;20481;-63
2020/12/10 11:20:35;;;;;;;15.07;11.37;;;4.50;99.90;;;;;;4995281;28;20496;-63
2020/12/10 11:23:01;;;;;;;16.20;12.53;;;4.60;99.90;;;;;;4994751;28;20453;-64
2020/12/10 11:25:28;;;;;;;15.23;11.67;;;4.60;99.90;;;;;;4994214;28;20474;-64
2020/12/10 11:27:54;;;;;;;13.60;11.53;;;4.60;99.90;;;;;;4994200;28;20466;-64
2020/12/10 11:30:20;;;;;;;14.47;11.47;;;4.60;99.90;;;;;;4995042;28;20473;-64
2020/12/10 11:32:47;;;;;;;14.20;11.23;;;4.40;99.90;;;;;;4994178;28;20496;-63
2020/12/10 11:35:14;;;;;;;10.30;8.80;;;4.40;99.90;;;;;;4994023;28;20446;-65
2020/12/10 11:37:40;;;;;;;14.63;12.00;;;4.50;99.90;;;;;;4994093;28;20450;-65
2020/12/10 11:40:06;;;;;;;14.20;10.27;;;4.50;99.90;;;;;;4993801;28;20454;-65
2020/12/10 11:42:32;;;;;;;12.73;10.53;;;4.60;99.90;;;;;;4993870;28;20818;-65
2020/12/10 11:45:00;;;;;;;12.30;10.73;;;4.70;99.90;;;;;;4993545;28;20472;-65
2020/12/10 11:47:27;;;;;;;13.33;11.10;;;4.80;99.90;;;;;;4995113;28;20453;-65
2020/12/10 11:49:53;;;;;;;10.20;9.10;;;4.90;99.90;;;;;;4997419;28;20454;-66
2020/12/10 11:52:21;;;;;;;8.37;7.27;;;4.80;99.90;;;;;;4997523;28;20466;-66
2020/12/10 11:54:47;;;;;;;10.00;8.23;;;4.80;99.90;;;;;;4997548;28;20488;-65
2020/12/10 11:57:13;;;;;;;10.27;8.50;;;4.70;99.90;;;;;;4997463;28;20450;-65
2020/12/10 11:59:39;;;;;;;11.70;8.60;;;4.60;99.90;;;;;;4997046;28;20453;-65
2020/12/10 12:02:07;;;;;;;9.60;8.10;;;4.60;99.90;;;;;;4997056;28;20516;-65
2020/12/10 12:04:33;;;;;;;9.33;8.30;;;4.60;99.90;;;;;;4997631;28;20456;-64
2020/12/10 12:07:01;;;;;;;9.23;8.27;;;4.60;99.90;;;;;;4997492;28;20500;-65
2020/12/10 12:09:28;;;;;;;9.70;8.43;;;4.60;99.90;;;;;;4997065;28;20822;-65
2020/12/10 12:11:54;;;;;;;10.30;9.20;;;4.60;99.90;;;;;;4997525;28;20477;-64
2020/12/10 12:14:20;;;;;;;12.17;9.40;;;4.60;99.90;;;;;;4997380;28;20461;-65
2020/12/10 12:16:47;;;;;;;11.87;9.50;;;4.50;99.90;;;;;;4997138;28;20446;-64
2020/12/10 12:19:13;;;;;;;9.87;8.77;;;4.60;99.90;;;;;;4997473;28;20460;-65
2020/12/10 12:21:39;;;;;;;9.67;8.67;;;4.60;99.90;;;;;;4997863;28;20795;-65
2020/12/10 12:24:05;;;;;;;14.83;9.43;;;4.70;99.90;;;;;;4996676;28;20450;-64
2020/12/10 12:26:33;;;;;;;9.00;8.10;;;4.70;99.90;;;;;;4996683;28;20485;-64
2020/12/10 12:29:00;;;;;;;13.63;9.23;;;4.70;99.90;;;;;;4997511;28;20454;-66
2020/12/10 12:31:30;;;;;;;11.40;9.67;;;4.50;99.90;;;;;;4996659;28;20481;-66
2020/12/10 12:33:57;;;;;;;9.93;8.50;;;4.50;99.90;;;;;;4997510;28;20462;-65
2020/12/10 12:36:23;;;;;;;11.27;9.27;;;4.40;99.90;;;;;;5008114;28;20454;-65
2020/12/10 12:38:50;;;;;;;10.83;9.07;;;4.50;99.90;;;;;;5010320;28;20456;-65
2020/12/10 12:41:16;;;;;;;9.93;8.93;;;4.60;99.90;;;;;;5011681;28;20479;-66
2020/12/10 12:43:44;;;;;;;10.33;9.20;;;4.50;99.90;;;;;;5014312;28;20465;-64
2020/12/10 12:46:10;;;;;;;15.00;10.80;;;4.60;99.90;;;;;;4999288;28;20486;-65
2020/12/10 12:48:36;;;;;;;10.83;9.63;;;4.70;99.90;;;;;;4997598;28;20459;-63
2020/12/10 12:51:03;;;;;;;11.97;9.20;;;4.60;99.90;;;;;;4997452;28;20481;-65
2020/12/10 12:53:29;;;;;;;11.97;10.40;;;4.70;99.90;;;;;;4996740;28;20488;-65
2020/12/10 12:55:56;;;;;;;14.30;10.90;;;4.50;99.90;;;;;;4996595;28;20446;-63
2020/12/10 12:58:22;;;;;;;13.03;10.07;;;4.50;99.90;;;;;;4996402;28;20477;-64
2020/12/10 13:00:49;;;;;;;14.30;11.40;;;4.50;99.90;;;;;;4995846;28;20490;-66
2020/12/10 13:03:15;;;;;;;15.37;10.80;;;4.50;99.90;;;;;;4996584;28;20925;-65
2020/12/10 13:05:41;;;;;;;13.10;9.73;;;4.50;99.90;;;;;;4996948;28;20527;-66
2020/12/10 13:08:08;;;;;;;11.47;10.27;;;4.40;99.90;;;;;;4996727;28;20950;-66
2020/12/10 13:10:34;;;;;;;14.17;10.20;;;4.40;99.90;;;;;;4996233;28;20505;-66
2020/12/10 13:13:00;;;;;;;20.20;12.90;;;4.60;99.90;;;;;;4996512;28;20450;-67
2020/12/10 13:15:26;;;;;;;13.67;11.03;;;4.60;99.90;;;;;;4996667;28;20473;-64
2020/12/10 13:17:53;;;;;;;12.13;10.70;;;4.70;99.90;;;;;;4996139;28;20454;-65
2020/12/10 13:20:19;;;;;;;14.33;10.43;;;5.00;99.90;;;;;;4996455;28;20844;-65
2020/12/10 13:22:46;;;;;;;13.97;11.63;;;5.20;99.90;;;;;;4996262;28;20454;-65
2020/12/10 13:25:12;;;;;;;13.80;10.67;;;5.30;99.90;;;;;;4995922;28;20853;-64
2020/12/10 13:27:38;;;;;;;13.87;11.60;;;5.50;99.90;;;;;;4996619;28;20486;-63
2020/12/10 13:30:05;;;;;;;12.90;10.77;;;5.40;99.90;;;;;;4996207;28;20485;-64
2020/12/10 13:32:31;;;;;;;13.47;11.87;;;5.50;99.90;;;;;;4995632;28;20497;-65
2020/12/10 13:34:58;;;;;;;14.60;10.80;;;5.40;99.90;;;;;;4996034;28;20454;-66
2020/12/10 13:37:24;;;;;;;14.40;11.57;;;5.40;99.90;;;;;;4996063;28;20887;-65
2020/12/10 13:39:50;;;;;;;15.10;12.40;;;5.30;99.90;;;;;;4995626;28;20983;-66
2020/12/10 13:42:17;;;;;;;13.70;11.70;;;5.20;99.90;;;;;;4995691;28;20474;-65
2020/12/10 13:44:45;;;;;;;14.00;11.00;;;5.10;99.90;;;;;;4995889;28;20438;-65
2020/12/10 13:47:15;;;;;;;14.10;11.73;;;5.10;99.90;;;;;;4995482;28;20514;-65
2020/12/10 13:49:42;;;;;;;15.13;12.00;;;5.00;99.90;;;;;;4995288;28;20946;-65
2020/12/10 13:52:09;;;;;;;14.00;12.00;;;5.00;99.90;;;;;;4995591;28;20510;-65
2020/12/10 13:54:36;;;;;;;15.77;11.77;;;4.90;99.90;;;;;;4995688;28;20454;-65
2020/12/10 13:57:03;;;;;;;12.43;11.13;;;4.80;99.90;;;;;;4995736;28;20446;-66
2020/12/10 13:59:30;;;;;;;14.37;12.27;;;4.70;99.90;;;;;;4995956;28;20963;-65
2020/12/10 14:01:56;;;;;;;17.00;12.17;;;4.70;99.90;;;;;;4994895;28;20581;-66
2020/12/10 14:04:22;;;;;;;16.50;12.87;;;4.70;99.90;;;;;;4995304;28;20487;-66
2020/12/10 14:06:49;;;;;;;16.80;13.50;;;4.50;99.90;;;;;;4995213;28;20477;-66
2020/12/10 14:09:16;;;;;;;15.67;12.50;;;4.60;99.90;;;;;;4995379;28;20446;-66
2020/12/10 14:11:43;;;;;;;15.43;12.67;;;4.60;99.90;;;;;;4995218;28;20465;-66
2020/12/10 14:14:09;;;;;;;17.63;14.80;;;4.60;99.90;;;;;;4995062;28;20450;-66
2020/12/10 14:16:37;;;;;;;14.67;12.00;;;4.50;99.90;;;;;;4995012;28;20450;-65
2020/12/10 14:19:03;;;;;;;15.60;12.83;;;4.50;99.90;;;;;;4995075;28;20450;-66
2020/12/10 14:21:29;;;;;;;21.30;13.37;;;4.40;99.90;;;;;;4994965;28;20474;-66
2020/12/10 14:23:56;;;;;;;17.70;13.90;;;4.40;99.90;;;;;;4994892;28;20565;-66
2020/12/10 14:26:23;;;;;;;18.00;12.57;;;4.20;99.90;;;;;;4994821;28;20500;-66
2020/12/10 14:28:49;;;;;;;20.33;14.90;;;4.10;99.90;;;;;;4994750;28;20993;-66
2020/12/10 14:31:15;;;;;;;18.47;14.73;;;4.20;99.90;;;;;;4994838;28;20528;-66
2020/12/10 14:33:42;;;;;;;17.23;13.17;;;4.20;99.90;;;;;;4994386;28;20818;-65
2020/12/10 14:36:08;;;;;;;16.77;13.10;;;4.20;99.90;;;;;;4994383;28;20947;-64
2020/12/10 14:38:35;;;;;;;16.17;12.60;;;4.20;99.90;;;;;;4994811;28;20531;-65
2020/12/10 14:41:02;;;;;;;16.67;12.77;;;4.10;99.90;;;;;;4994973;28;20536;-65
2020/12/10 14:43:29;;;;;;;14.13;11.93;;;4.10;99.90;;;;;;4994963;28;20461;-64
2020/12/10 14:45:55;;;;;;;20.93;12.30;;;4.10;99.90;;;;;;4994623;28;20478;-65
2020/12/10 14:48:21;;;;;;;13.30;11.90;;;4.20;99.90;;;;;;4995130;28;20460;-64
2020/12/10 14:50:48;;;;;;;21.50;12.10;;;4.10;99.90;;;;;;4994660;28;20484;-64
2020/12/10 14:53:14;;;;;;;16.00;13.03;;;4.10;99.90;;;;;;4994913;28;20466;-66
2020/12/10 14:55:40;;;;;;;16.10;12.90;;;4.10;99.90;;;;;;4994591;28;20461;-65
2020/12/10 14:58:07;;;;;;;16.10;12.97;;;4.20;99.90;;;;;;4994796;28;20453;-65
2020/12/10 15:00:34;;;;;;;15.17;12.33;;;4.20;99.90;;;;;;4994371;28;20469;-65
2020/12/10 15:03:00;;;;;;;15.87;12.13;;;4.10;99.90;;;;;;4994960;28;20441;-65
2020/12/10 15:05:26;;;;;;;21.30;13.03;;;4.20;99.90;;;;;;4994535;28;20454;-65
2020/12/10 15:07:52;;;;;;;15.83;11.90;;;4.20;99.90;;;;;;4994945;28;20450;-65
2020/12/10 15:10:19;;;;;;;16.43;13.57;;;4.30;99.90;;;;;;4994921;28;20470;-65
2020/12/10 15:12:45;;;;;;;15.90;12.80;;;4.30;99.90;;;;;;4995031;28;20453;-65
2020/12/10 15:15:12;;;;;;;17.43;13.03;;;4.30;99.90;;;;;;4994735;28;20446;-65
2020/12/10 15:17:39;;;;;;;17.30;12.60;;;4.30;99.90;;;;;;4994852;28;20454;-65
2020/12/10 15:20:06;;;;;;;15.17;12.53;;;4.20;99.90;;;;;;4994243;28;20935;-66
2020/12/10 15:22:32;;;;;;;16.50;13.07;;;4.20;99.90;;;;;;4995564;28;20477;-66
2020/12/10 15:24:58;;;;;;;23.63;13.27;;;4.20;99.90;;;;;;4998418;28;20478;-65
2020/12/10 15:27:24;;;;;;;18.20;14.40;;;4.20;99.90;;;;;;4997902;28;20486;-65
2020/12/10 15:29:50;;;;;;;15.60;12.80;;;4.20;99.90;;;;;;4998182;28;20456;-65
2020/12/10 15:32:17;;;;;;;17.70;14.50;;;4.20;99.90;;;;;;4998425;28;20473;-65
2020/12/10 15:34:44;;;;;;;18.90;14.67;;;4.20;99.90;;;;;;4998342;28;20453;-66
2020/12/10 15:37:10;;;;;;;17.10;12.57;;;4.20;99.90;;;;;;4998561;28;20453;-65
2020/12/10 15:39:36;;;;;;;14.90;12.47;;;4.20;99.90;;;;;;4998557;28;20456;-66
2020/12/10 15:42:04;;;;;;;17.73;12.23;;;4.20;99.90;;;;;;4998107;28;20477;-65
2020/12/10 15:44:31;;;;;;;13.93;12.33;;;4.20;99.90;;;;;;4998493;28;20460;-65
2020/12/10 15:46:57;;;;;;;17.20;13.70;;;4.20;99.90;;;;;;4998155;28;20477;-65
2020/12/10 15:49:24;;;;;;;19.77;13.70;;;4.20;99.90;;;;;;4998447;28;20942;-65
2020/12/10 15:51:51;;;;;;;20.03;14.93;;;4.20;99.90;;;;;;4998490;28;20476;-66
2020/12/10 15:54:18;;;;;;;16.57;12.70;;;4.20;99.90;;;;;;4998123;28;20453;-65
2020/12/10 15:56:44;;;;;;;19.77;15.13;;;4.10;99.90;;;;;;4997830;28;20836;-65
2020/12/10 15:59:10;;;;;;;20.00;14.17;;;4.10;99.90;;;;;;4998231;28;20450;-65
2020/12/10 16:01:36;;;;;;;19.13;13.13;;;3.90;99.90;;;;;;4997877;28;20485;-65
2020/12/10 16:04:02;;;;;;;17.23;12.67;;;4.00;99.90;;;;;;4998190;28;20458;-65
2020/12/10 16:06:29;;;;;;;16.20;13.53;;;4.00;99.90;;;;;;4998454;28;20554;-65
2020/12/10 16:08:56;;;;;;;17.50;13.37;;;4.00;99.90;;;;;;4999200;28;20464;-65
2020/12/10 16:11:22;;;;;;;17.97;13.57;;;4.00;99.90;;;;;;4998972;28;20469;-65
2020/12/10 16:13:48;;;;;;;18.83;13.60;;;4.00;99.90;;;;;;5001741;28;20458;-65
2020/12/10 16:16:15;;;;;;;19.17;14.40;;;4.00;99.90;;;;;;5001851;28;20457;-65
2020/12/10 16:18:41;;;;;;;15.97;13.23;;;4.10;99.90;;;;;;5000937;28;20454;-65
2020/12/10 16:21:07;;;;;;;19.70;15.00;;;4.10;99.90;;;;;;5001252;28;20481;-65
2020/12/10 16:23:33;;;;;;;17.33;13.37;;;4.20;99.90;;;;;;4999401;28;20946;-65
2020/12/10 16:26:01;;;;;;;21.13;13.90;;;4.10;99.90;;;;;;4998600;28;20937;-65
2020/12/10 16:28:27;;;;;;;21.53;13.00;;;4.10;99.90;;;;;;5000341;28;20937;-64
2020/12/10 16:30:54;;;;;;;18.83;14.20;;;4.10;99.90;;;;;;5000665;28;20477;-65
2020/12/10 16:33:20;;;;;;;18.17;13.70;;;4.10;99.90;;;;;;5002020;28;20454;-64
2020/12/10 16:35:46;;;;;;;20.00;14.30;;;4.00;99.90;;;;;;5002397;28;20446;-64
2020/12/10 16:38:12;;;;;;;19.80;14.87;;;4.00;99.90;;;;;;5001686;28;20457;-64
2020/12/10 16:40:38;;;;;;;18.60;14.50;;;4.00;99.90;;;;;;5000165;28;20981;-65
2020/12/10 16:43:05;;;;;;;18.70;14.00;;;4.00;99.90;;;;;;4996951;28;20454;-64
2020/12/10 16:45:31;;;;;;;21.43;15.33;;;4.00;99.90;;;;;;4996657;28;20477;-65
2020/12/10 16:47:58;;;;;;;23.20;17.40;;;3.90;99.90;;;;;;4997037;28;20457;-65
2020/12/10 16:50:24;;;;;;;25.37;19.30;;;3.90;99.90;;;;;;4996914;28;20813;-64
2020/12/10 16:52:51;;;;;;;25.27;19.57;;;3.90;99.90;;;;;;4996798;28;20457;-64
2020/12/10 16:55:17;;;;;;;24.70;19.27;;;3.90;99.90;;;;;;4996809;28;20450;-63
2020/12/10 16:57:43;;;;;;;21.43;16.67;;;3.90;99.90;;;;;;4995884;28;20942;-63
2020/12/10 17:00:10;;;;;;;27.57;19.57;;;3.90;99.90;;;;;;4995899;28;20454;-63
2020/12/10 17:02:36;;;;;;;29.87;20.57;;;3.80;99.90;;;;;;4995778;28;20552;-63
2020/12/10 17:05:03;;;;;;;25.53;19.20;;;3.80;99.90;;;;;;4996569;28;20450;-63
2020/12/10 17:07:33;;;;;;;25.23;17.53;;;3.80;99.90;;;;;;4997110;28;20481;-63
2020/12/10 17:09:59;;;;;;;24.33;18.20;;;3.70;99.90;;;;;;4996038;28;20512;-63
2020/12/10 17:12:26;;;;;;;27.00;18.20;;;3.70;99.90;;;;;;4996030;28;20476;-64
2020/12/10 17:14:52;;;;;;;27.23;17.17;;;3.70;99.90;;;;;;4995879;28;20450;-64
2020/12/10 17:17:19;;;;;;;28.97;18.53;;;3.80;99.90;;;;;;4995913;28;20446;-63
2020/12/10 17:19:45;;;;;;;28.87;19.00;;;3.60;99.90;;;;;;4996325;28;20477;-64
2020/12/10 17:22:11;;;;;;;27.97;17.87;;;3.60;99.90;;;;;;4995841;28;20470;-64
2020/12/10 17:24:38;;;;;;;30.60;17.80;;;3.50;99.90;;;;;;4995902;28;20994;-64
2020/12/10 17:27:04;;;;;;;24.17;17.83;;;3.50;99.90;;;;;;4996195;28;20477;-65
2020/12/10 17:29:30;;;;;;;31.33;18.60;;;3.40;99.90;;;;;;4996903;28;20453;-64
2020/12/10 17:31:56;;;;;;;33.43;21.47;;;3.40;99.90;;;;;;4995695;28;20480;-65
2020/12/10 17:34:23;;;;;;;29.97;19.07;;;3.30;99.90;;;;;;4996054;28;20815;-64
2020/12/10 17:36:49;;;;;;;29.87;19.20;;;3.20;99.90;;;;;;4995596;28;20450;-64
2020/12/10 17:39:15;;;;;;;27.93;17.43;;;3.20;99.90;;;;;;4995902;28;20481;-65
2020/12/10 17:41:45;;;;;;;27.40;18.97;;;3.20;99.90;;;;;;4995924;28;20473;-65